sensor_id;sensor_type;location;lat;lon;timestamp;temperature;humidity
65536;DHT22;52145;49.342;9.116;2022-11-15T08:48:11;9.10;99.90
65536;DHT22;52145;49.342;9.116;2022-11-15T08:50:36;9.10;99.90
65536;DHT22;52145;49.342;9.116;2022-11-15T08:53:07;9.20;99.90
65536;DHT22;52145;49.342;9.116;2022-11-15T08:55:36;9.30;99.90
65536;DHT22;52145;49.342;9.116;2022-11-15T08:58:01;9.40;99.90
65536;DHT22;52145;49.342;9.116;2022-11-15T09:00:27;9.70;99.90
65536;DHT22;52145;49.342;9.116;2022-11-15T09:02:52;9.90;99.90
65536;DHT22;52145;49.342;9.116;2022-11-15T09:05:18;9.70;99.90
65536;DHT22;52145;49.342;9.116;2022-11-15T09:07:44;10.00;99.90
65536;DHT22;52145;49.342;9.116;2022-11-15T09:10:09;10.20;99.90
65536;DHT22;52145;49.342;9.116;2022-11-15T09:12:35;10.30;99.90
65536;DHT22;52145;49.342;9.116;2022-11-15T09:15:01;10.60;99.90
65536;DHT22;52145;49.342;9.116;2022-11-15T09:17:26;10.80;99.90
65536;DHT22;52145;49.342;9.116;2022-11-15T09:19:52;10.70;99.90
65536;DHT22;52145;49.342;9.116;2022-11-15T09:22:17;11.10;99.90
65536;DHT22;52145;49.342;9.116;2022-11-15T09:24:43;11.00;99.90
65536;DHT22;52145;49.342;9.116;2022-11-15T09:27:09;10.80;99.90
65536;DHT22;52145;49.342;9.116;2022-11-15T09:29:34;11.20;99.90
65536;DHT22;52145;49.342;9.116;2022-11-15T09:32:00;11.30;99.90
65536;DHT22;52145;49.342;9.116;2022-11-15T09:34:25;11.40;99.90
65536;DHT22;52145;49.342;9.116;2022-11-15T09:36:51;11.40;99.90
65536;DHT22;52145;49.342;9.116;2022-11-15T09:39:17;11.40;99.90
65536;DHT22;52145;49.342;9.116;2022-11-15T09:41:58;11.10;99.90
65536;DHT22;52145;49.342;9.116;2022-11-15T09:44:41;11.10;99.90
65536;DHT22;52145;49.342;9.116;2022-11-15T09:50:12;11.80;99.90
65536;DHT22;52145;49.342;9.116;2022-11-15T09:52:42;11.80;99.90
65536;DHT22;52145;49.342;9.116;2022-11-15T09:55:12;12.00;99.90
65536;DHT22;52145;49.342;9.116;2022-11-15T09:57:43;12.20;99.90
65536;DHT22;52145;49.342;9.116;2022-11-15T10:00:20;12.30;99.90
65536;DHT22;52145;49.342;9.116;2022-11-15T10:03:02;12.40;99.90
65536;DHT22;52145;49.342;9.116;2022-11-15T10:05:30;12.40;99.90
65536;DHT22;52145;49.342;9.116;2022-11-15T10:08:13;12.20;99.90
65536;DHT22;52145;49.342;9.116;2022-11-15T10:10:48;12.40;99.90
65536;DHT22;52145;49.342;9.116;2022-11-15T10:13:25;12.50;99.90
65536;DHT22;52145;49.342;9.116;2022-11-15T10:15:53;13.00;99.90
65536;DHT22;52145;49.342;9.116;2022-11-15T10:20:59;13.70;99.90
65536;DHT22;52145;49.342;9.116;2022-11-15T10:23:27;13.40;99.90
65536;DHT22;52145;49.342;9.116;2022-11-15T10:25:58;13.20;99.90
65536;DHT22;52145;49.342;9.116;2022-11-15T10:28:27;13.30;99.90
65536;DHT22;52145;49.342;9.116;2022-11-15T10:30:55;13.30;99.90
65536;DHT22;52145;49.342;9.116;2022-11-15T10:33:23;13.40;99.90
65536;DHT22;52145;49.342;9.116;2022-11-15T10:41:16;13.50;99.90
65536;DHT22;52145;49.342;9.116;2022-11-15T10:43:42;13.40;99.90
65536;DHT22;52145;49.342;9.116;2022-11-15T10:46:20;13.50;99.90
65536;DHT22;52145;49.342;9.116;2022-11-15T10:48:46;13.50;99.90
65536;DHT22;52145;49.342;9.116;2022-11-15T10:51:24;13.40;99.90
65536;DHT22;52145;49.342;9.116;2022-11-15T10:53:55;13.50;99.90
65536;DHT22;52145;49.342;9.116;2022-11-15T10:56:23;13.40;99.90
65536;DHT22;52145;49.342;9.116;2022-11-15T10:58:58;13.50;99.90
65536;DHT22;52145;49.342;9.116;2022-11-15T11:01:25;13.40;99.90
65536;DHT22;52145;49.342;9.116;2022-11-15T11:04:00;13.40;99.90
65536;DHT22;52145;49.342;9.116;2022-11-15T11:06:27;13.40;99.90
65536;DHT22;52145;49.342;9.116;2022-11-15T11:09:01;13.20;99.90
65536;DHT22;52145;49.342;9.116;2022-11-15T11:11:47;13.40;99.90
65536;DHT22;52145;49.342;9.116;2022-11-15T11:14:21;13.60;99.90
65536;DHT22;52145;49.342;9.116;2022-11-15T11:16:52;13.50;99.90
65536;DHT22;52145;49.342;9.116;2022-11-15T11:27:21;13.40;99.90
65536;DHT22;52145;49.342;9.116;2022-11-15T11:29:52;13.60;99.90
65536;DHT22;52145;49.342;9.116;2022-11-15T11:35:17;13.80;99.90
65536;DHT22;52145;49.342;9.116;2022-11-15T11:40:44;13.60;99.90
65536;DHT22;52145;49.342;9.116;2022-11-15T11:46:27;14.70;99.90
65536;DHT22;52145;49.342;9.116;2022-11-15T11:49:03;15.50;99.90
65536;DHT22;52145;49.342;9.116;2022-11-15T11:51:36;15.30;99.90
65536;DHT22;52145;49.342;9.116;2022-11-15T11:54:12;15.30;99.90
65536;DHT22;52145;49.342;9.116;2022-11-15T11:56:42;15.40;99.90
65536;DHT22;52145;49.342;9.116;2022-11-15T12:02:08;15.00;99.90
65536;DHT22;52145;49.342;9.116;2022-11-15T12:04:40;15.20;99.90
65536;DHT22;52145;49.342;9.116;2022-11-15T12:07:31;15.40;99.90
65536;DHT22;52145;49.342;9.116;2022-11-15T12:10:24;16.90;99.90
65536;DHT22;52145;49.342;9.116;2022-11-15T12:13:06;17.50;98.50
65536;DHT22;52145;49.342;9.116;2022-11-15T12:15:39;17.30;97.80
65536;DHT22;52145;49.342;9.116;2022-11-15T12:18:11;17.30;97.80
65536;DHT22;52145;49.342;9.116;2022-11-15T12:20:41;16.50;99.20
65536;DHT22;52145;49.342;9.116;2022-11-15T12:23:31;16.40;99.90
65536;DHT22;52145;49.342;9.116;2022-11-15T12:26:00;16.20;99.90
65536;DHT22;52145;49.342;9.116;2022-11-15T12:28:33;16.20;99.90
65536;DHT22;52145;49.342;9.116;2022-11-15T12:36:46;15.70;99.90
65536;DHT22;52145;49.342;9.116;2022-11-15T12:39:14;15.60;99.90
65536;DHT22;52145;49.342;9.116;2022-11-15T12:41:41;15.80;99.90
65536;DHT22;52145;49.342;9.116;2022-11-15T12:44:12;15.50;99.90
65536;DHT22;52145;49.342;9.116;2022-11-15T12:59:57;15.20;99.90
65536;DHT22;52145;49.342;9.116;2022-11-15T13:02:26;15.30;99.90
65536;DHT22;52145;49.342;9.116;2022-11-15T13:04:54;15.30;99.90
65536;DHT22;52145;49.342;9.116;2022-11-15T13:22:52;15.20;99.90
65536;DHT22;52145;49.342;9.116;2022-11-15T13:31:40;15.10;99.90
65536;DHT22;52145;49.342;9.116;2022-11-15T13:34:25;15.10;99.90
65536;DHT22;52145;49.342;9.116;2022-11-15T13:36:51;15.00;99.90
65536;DHT22;52145;49.342;9.116;2022-11-15T13:39:29;14.90;99.90
65536;DHT22;52145;49.342;9.116;2022-11-15T13:41:55;14.70;99.90
65536;DHT22;52145;49.342;9.116;2022-11-15T13:44:23;14.70;99.90
65536;DHT22;52145;49.342;9.116;2022-11-15T13:47:01;14.80;99.90
65536;DHT22;52145;49.342;9.116;2022-11-15T13:49:31;14.60;99.90
65536;DHT22;52145;49.342;9.116;2022-11-15T13:51:58;14.70;99.90
65536;DHT22;52145;49.342;9.116;2022-11-15T13:57:28;14.80;99.90
65536;DHT22;52145;49.342;9.116;2022-11-15T14:00:00;15.10;99.90
65536;DHT22;52145;49.342;9.116;2022-11-15T14:02:30;15.10;99.90
65536;DHT22;52145;49.342;9.116;2022-11-15T14:05:17;15.20;99.90
65536;DHT22;52145;49.342;9.116;2022-11-15T14:10:40;15.10;99.90
65536;DHT22;52145;49.342;9.116;2022-11-15T14:13:26;15.00;99.90
65536;DHT22;52145;49.342;9.116;2022-11-15T14:15:52;15.00;99.90
65536;DHT22;52145;49.342;9.116;2022-11-15T14:18:44;14.80;99.90
65536;DHT22;52145;49.342;9.116;2022-11-15T14:21:10;14.70;99.90
65536;DHT22;52145;49.342;9.116;2022-11-15T14:23:36;14.60;99.90
65536;DHT22;52145;49.342;9.116;2022-11-15T14:26:01;14.30;99.90
65536;DHT22;52145;49.342;9.116;2022-11-15T14:28:28;14.30;99.90
65536;DHT22;52145;49.342;9.116;2022-11-15T14:30:57;14.30;99.90
65536;DHT22;52145;49.342;9.116;2022-11-15T14:33:38;14.20;99.90
65536;DHT22;52145;49.342;9.116;2022-11-15T14:38:39;14.20;99.90
65536;DHT22;52145;49.342;9.116;2022-11-15T14:41:08;14.20;99.90
65536;DHT22;52145;49.342;9.116;2022-11-15T14:43:35;14.30;99.90
65536;DHT22;52145;49.342;9.116;2022-11-15T14:46:01;14.50;99.90
65536;DHT22;52145;49.342;9.116;2022-11-15T14:48:26;14.60;99.90
65536;DHT22;52145;49.342;9.116;2022-11-15T14:50:52;14.60;99.90
65536;DHT22;52145;49.342;9.116;2022-11-15T14:53:17;14.30;99.90
65536;DHT22;52145;49.342;9.116;2022-11-15T14:55:44;14.20;99.90
65536;DHT22;52145;49.342;9.116;2022-11-15T14:58:09;14.00;99.90
65536;DHT22;52145;49.342;9.116;2022-11-15T15:03:04;13.90;99.90
65536;DHT22;52145;49.342;9.116;2022-11-15T15:05:36;13.80;99.90
65536;DHT22;52145;49.342;9.116;2022-11-15T15:08:03;13.70;99.90
65536;DHT22;52145;49.342;9.116;2022-11-15T15:10:33;13.60;99.90
65536;DHT22;52145;49.342;9.116;2022-11-15T15:12:59;13.70;99.90
65536;DHT22;52145;49.342;9.116;2022-11-15T15:15:26;13.60;99.90
65536;DHT22;52145;49.342;9.116;2022-11-15T15:17:52;13.40;99.90
65536;DHT22;52145;49.342;9.116;2022-11-15T15:20:18;13.30;99.90
65536;DHT22;52145;49.342;9.116;2022-11-15T15:22:44;13.40;99.90
65536;DHT22;52145;49.342;9.116;2022-11-15T15:25:30;13.40;99.90
65536;DHT22;52145;49.342;9.116;2022-11-15T15:27:57;13.40;99.90
65536;DHT22;52145;49.342;9.116;2022-11-15T15:30:24;13.20;99.90
65536;DHT22;52145;49.342;9.116;2022-11-15T15:32:50;13.10;99.90
65536;DHT22;52145;49.342;9.116;2022-11-15T15:35:17;13.10;99.90
65536;DHT22;52145;49.342;9.116;2022-11-15T15:37:43;12.90;99.90
65536;DHT22;52145;49.342;9.116;2022-11-15T15:42:38;12.80;99.90
65536;DHT22;52145;49.342;9.116;2022-11-15T15:45:04;12.60;99.90
65536;DHT22;52145;49.342;9.116;2022-11-15T15:47:29;12.60;99.90
65536;DHT22;52145;49.342;9.116;2022-11-15T15:49:55;12.50;99.90
65536;DHT22;52145;49.342;9.116;2022-11-15T15:52:20;12.40;99.90
65536;DHT22;52145;49.342;9.116;2022-11-15T15:54:46;12.30;99.90
